KDMO/DMO METAR and TAF weather

Enter ICAO airport designator
Station Type Date Time Source
KDMO METAR 2022/01/27 23:53 UTC NOAA

KDMO 272353Z AUTO 34011KT 10SM OVC046 03/M06 A3031 RMK AO2 SLP272 T00281056 10067 20028 51022


Station Type Date Time Source
KDMO Decoded METAR 2022/01/27 23:53 UTC NOAA

SEDALIA MEMORIAL AIRPORT, MO, United States (KDMO) 38-43N 93-10W 274M
Jan 27, 2022 - 06:53 PM EST / 2022.01.27 2353 UTC
Wind: from the NNW (340 degrees) at 13 MPH (11 KT):0
Visibility: 10 mile(s):0
Sky conditions: overcast
Temperature: 37.0 F (2.8 C)
Dew Point: 21.9 F (-5.6 C)
Relative Humidity: 53%
Pressure (altimeter): 30.31 in. Hg (1026 hPa)
Pressure tendency: 0.06 inches (2.2 hPa) higher than three hours ago
ob: KDMO 272353Z AUTO 34011KT 10SM OVC046 03/M06 A3031 RMK AO2 SLP272 T00281056 10067 20028 51022
cycle: 0

Station Type Date Time Source
KDMO TAF UTC NOAA

Error!

Example: see airport list